Casement Air Base


Codes: EIME/
Name: Casement Air Base
City: Baldonnel
Country: Ireland
Elevation: 319 ft.
Wikipedia:

Photos at Casement Air Base


   Photos courtesy of SpottingLog. You can add your own sightings and photos by signing up for a free trial today.



No photos found.

Weather at Casement Air Base


Time (UTC)DescriptionTempratureWindCloud coverageVisibilityPressureHumidity
23-May-2024 21:00Broken Clouds11°C7 mph, NW83%10000m1016hPa68%
24-May-2024 00:00Overcast Clouds10°C9 mph, W92%10000m1017hPa69%
24-May-2024 03:00Overcast Clouds8°C7 mph, W100%10000m1017hPa78%
24-May-2024 06:00Light Rain7°C7 mph, SW100%10000m1017hPa95%
24-May-2024 09:00Light Rain8°C7 mph, SW100%10000m1018hPa94%
24-May-2024 12:00Overcast Clouds9°C4 mph, SW100%10000m1018hPa91%
24-May-2024 15:00Light Rain9°C4 mph, S100%10000m1018hPa93%
24-May-2024 18:00Overcast Clouds10°C2 mph, SE100%10000m1018hPa91%
24-May-2024 21:00Overcast Clouds10°C4 mph, SE99%10000m1018hPa91%
25-May-2024 00:00Overcast Clouds9°C4 mph, SE100%10000m1017hPa92%
25-May-2024 03:00Scattered Clouds6°C4 mph, S25%10000m1017hPa93%
25-May-2024 06:00Few Clouds8°C4 mph, SE14%10000m1016hPa91%
25-May-2024 09:00Broken Clouds13°C7 mph, SE63%10000m1015hPa63%
25-May-2024 12:00Broken Clouds15°C11 mph, SE81%10000m1014hPa57%
25-May-2024 15:00Overcast Clouds13°C11 mph, SE100%10000m1013hPa66%
25-May-2024 18:00Light Rain11°C7 mph, SE100%10000m1011hPa84%
25-May-2024 21:00Light Rain9°C7 mph, SE100%10000m1011hPa89%
26-May-2024 00:00Light Rain10°C9 mph, SE100%4684m1008hPa95%
26-May-2024 03:00Light Rain10°C7 mph, E100%2109m1007hPa98%
26-May-2024 06:00Light Rain10°C2 mph, N100%0m1007hPa98%
26-May-2024 09:00Light Rain13°C4 mph, SW100%10000m1007hPa85%
26-May-2024 12:00Light Rain14°C9 mph, SW98%10000m1007hPa81%
26-May-2024 15:00Light Rain14°C11 mph, SW100%9538m1007hPa85%
26-May-2024 18:00Light Rain10°C13 mph, SW100%10000m1008hPa95%
26-May-2024 21:00Light Rain9°C9 mph, SW100%10000m1010hPa96%
27-May-2024 00:00Overcast Clouds7°C9 mph, SW100%10000m1011hPa96%
27-May-2024 03:00Overcast Clouds6°C7 mph, SW99%10000m1011hPa95%
27-May-2024 06:00Overcast Clouds8°C4 mph, SW100%10000m1012hPa92%
27-May-2024 09:00Broken Clouds13°C4 mph, SW74%10000m1013hPa70%
27-May-2024 12:00Broken Clouds16°C4 mph, NW58%10000m1013hPa58%
27-May-2024 15:00Light Rain17°C2 mph, W76%10000m1012hPa57%
27-May-2024 18:00Light Rain16°C4 mph, SW74%10000m1013hPa71%
27-May-2024 21:00Light Rain11°C7 mph, S100%10000m1013hPa93%
28-May-2024 00:00Overcast Clouds10°C4 mph, S100%10000m1012hPa94%
28-May-2024 03:00Overcast Clouds10°C4 mph, S93%10000m1010hPa90%
28-May-2024 06:00Light Rain10°C7 mph, SE97%10000m1008hPa97%
28-May-2024 09:00Light Rain12°C7 mph, S100%3875m1007hPa97%
28-May-2024 12:00Light Rain17°C13 mph, SW87%7411m1006hPa87%
28-May-2024 15:00Light Rain17°C11 mph, W93%10000m1006hPa84%
28-May-2024 18:00Light Rain15°C11 mph, W93%10000m1005hPa88%